createdAt,value
2022-09-15T00:00:57.206Z,12.37
2022-09-15T00:03:24.561Z,12.39
2022-09-15T00:05:53.574Z,12.38
2022-09-15T00:08:20.911Z,12.39
2022-09-15T00:10:56.061Z,12.39
2022-09-15T00:13:23.219Z,12.38
2022-09-15T00:15:50.179Z,12.35
2022-09-15T00:18:17.521Z,12.34
2022-09-15T00:20:45.720Z,12.31
2022-09-15T00:23:14.384Z,12.30
2022-09-15T00:25:46.457Z,12.26
2022-09-15T00:28:15.344Z,12.26
2022-09-15T00:30:47.983Z,12.25
2022-09-15T00:33:16.329Z,12.28
2022-09-15T00:35:45.400Z,12.29
2022-09-15T00:38:12.979Z,12.24
2022-09-15T00:40:51.517Z,12.20
2022-09-15T00:43:20.408Z,12.15
2022-09-15T00:45:48.445Z,12.17
2022-09-15T00:48:20.906Z,12.06
2022-09-15T00:50:53.949Z,12.05
2022-09-15T00:53:21.126Z,12.01
2022-09-15T00:55:49.614Z,12.05
2022-09-15T00:58:25.817Z,12.07
2022-09-15T01:01:01.019Z,12.07
2022-09-15T01:03:32.669Z,12.08
2022-09-15T01:06:05.222Z,12.08
2022-09-15T01:08:36.713Z,12.09
2022-09-15T01:11:03.411Z,12.14
2022-09-15T01:13:30.222Z,12.19
2022-09-15T01:16:08.602Z,12.21
2022-09-15T01:18:48.941Z,12.24
2022-09-15T01:21:36.633Z,12.28
2022-09-15T01:24:30.393Z,12.32
2022-09-15T01:27:46.265Z,12.41
2022-09-15T01:30:16.424Z,12.46
2022-09-15T01:33:08.699Z,12.49
2022-09-15T01:36:00.678Z,12.54
2022-09-15T01:38:38.163Z,12.55
2022-09-15T01:41:16.918Z,12.60
2022-09-15T01:44:25.713Z,12.63
2022-09-15T01:46:58.541Z,12.64
2022-09-15T01:49:38.308Z,12.67
2022-09-15T01:52:05.561Z,12.65
2022-09-15T01:54:48.776Z,12.66
2022-09-15T01:57:22.080Z,12.64
2022-09-15T01:59:54.349Z,12.69
2022-09-15T02:02:28.421Z,12.72
2022-09-15T02:05:25.421Z,12.75
2022-09-15T02:08:16.028Z,12.75
2022-09-15T02:10:48.195Z,12.79
2022-09-15T02:13:25.706Z,12.80
2022-09-15T02:16:00.091Z,12.82
2022-09-15T02:18:44.043Z,12.86
2022-09-15T02:21:37.407Z,12.84
2022-09-15T02:24:19.110Z,12.86
2022-09-15T02:26:49.678Z,12.85
2022-09-15T02:29:20.785Z,12.91
2022-09-15T02:31:49.659Z,12.91
2022-09-15T02:34:27.078Z,12.88
2022-09-15T02:36:55.123Z,12.89
2022-09-15T02:39:27.647Z,12.93
2022-09-15T02:41:54.267Z,12.94
2022-09-15T02:44:20.795Z,12.96
2022-09-15T02:46:47.410Z,12.98
2022-09-15T02:49:14.246Z,12.96
2022-09-15T02:51:40.778Z,12.98
2022-09-15T02:54:08.098Z,12.93
2022-09-15T02:56:34.604Z,12.93
2022-09-15T02:59:01.548Z,12.98
2022-09-15T03:01:34.743Z,12.91
2022-09-15T03:04:03.957Z,12.96
2022-09-15T03:06:34.661Z,12.98
2022-09-15T03:09:05.055Z,13.00
2022-09-15T03:11:31.865Z,13.00
2022-09-15T03:14:05.756Z,13.01
2022-09-15T03:16:34.523Z,12.99
2022-09-15T03:19:01.978Z,12.98
2022-09-15T03:21:29.680Z,13.00
2022-09-15T03:23:57.713Z,12.99
2022-09-15T03:26:25.187Z,12.99
2022-09-15T03:28:51.905Z,12.99
2022-09-15T03:31:19.855Z,12.98
2022-09-15T03:33:46.719Z,12.97
2022-09-15T03:36:13.389Z,12.96
2022-09-15T03:38:39.932Z,12.96
2022-09-15T03:41:10.053Z,12.93
2022-09-15T03:43:37.909Z,13.00
2022-09-15T03:46:06.790Z,13.00
2022-09-15T03:48:35.769Z,13.02
2022-09-15T03:51:05.845Z,13.02
2022-09-15T03:53:34.255Z,13.03
2022-09-15T03:56:24.764Z,13.05
2022-09-15T03:58:52.001Z,13.06
2022-09-15T04:01:19.939Z,13.03
2022-09-15T04:03:50.833Z,13.06
2022-09-15T04:06:19.373Z,13.09
2022-09-15T04:08:45.888Z,13.09
2022-09-15T04:11:13.682Z,13.10
2022-09-15T04:13:42.085Z,13.10
2022-09-15T04:16:17.804Z,13.10
2022-09-15T04:18:46.057Z,13.14
2022-09-15T04:21:15.717Z,13.17
2022-09-15T04:23:43.268Z,13.21
2022-09-15T04:26:15.988Z,13.21
2022-09-15T04:28:42.644Z,13.26
2022-09-15T04:31:11.682Z,13.27
2022-09-15T04:33:39.569Z,13.31
2022-09-15T04:36:18.240Z,13.35
2022-09-15T04:38:45.590Z,13.34
2022-09-15T04:41:12.449Z,13.33
2022-09-15T04:43:39.198Z,13.40
2022-09-15T04:46:06.229Z,13.41
2022-09-15T04:48:32.791Z,13.44
2022-09-15T04:51:05.035Z,13.47
2022-09-15T04:53:31.596Z,13.53
2022-09-15T04:56:05.918Z,13.54
2022-09-15T04:58:40.329Z,13.56
2022-09-15T05:01:13.330Z,13.58
2022-09-15T05:03:40.478Z,13.63
2022-09-15T05:06:09.497Z,13.67
2022-09-15T05:08:36.645Z,13.72
2022-09-15T05:11:07.083Z,13.71
2022-09-15T05:13:35.346Z,13.75
2022-09-15T05:16:19.699Z,13.73
2022-09-15T05:18:47.630Z,13.75
2022-09-15T05:21:16.489Z,13.76
2022-09-15T05:23:43.749Z,13.75
2022-09-15T05:26:16.290Z,13.82
2022-09-15T05:28:43.026Z,13.80
2022-09-15T05:31:12.083Z,13.82
2022-09-15T05:33:39.300Z,13.87
2022-09-15T05:36:07.199Z,13.87
2022-09-15T05:38:34.113Z,13.89
2022-09-15T05:41:19.126Z,13.92
2022-09-15T05:43:47.298Z,13.94
2022-09-15T05:46:14.828Z,13.95
2022-09-15T05:48:41.626Z,13.91
2022-09-15T05:51:08.202Z,13.93
2022-09-15T05:53:35.663Z,13.96
2022-09-15T05:56:05.715Z,13.98
2022-09-15T05:58:32.557Z,14.01
2022-09-15T06:01:05.490Z,14.06
2022-09-15T06:03:32.300Z,14.09
2022-09-15T06:06:00.416Z,14.09
2022-09-15T06:08:35.135Z,14.12
2022-09-15T06:11:07.921Z,14.17
2022-09-15T06:13:34.695Z,14.17
2022-09-15T06:16:06.556Z,14.23
2022-09-15T06:18:35.173Z,14.27
2022-09-15T06:21:14.197Z,14.31
2022-09-15T06:23:44.129Z,14.34
2022-09-15T06:26:18.439Z,14.36
2022-09-15T06:28:56.362Z,14.37
2022-09-15T06:31:24.015Z,14.42
2022-09-15T06:33:52.364Z,14.43
2022-09-15T06:36:21.388Z,14.50
2022-09-15T06:38:48.736Z,14.53
2022-09-15T06:41:15.858Z,14.58
2022-09-15T06:43:42.808Z,14.64
2022-09-15T06:46:14.886Z,14.68
2022-09-15T06:48:46.248Z,14.72
2022-09-15T06:51:17.149Z,14.76
2022-09-15T06:53:44.571Z,14.82
2022-09-15T06:56:22.307Z,14.90
2022-09-15T06:58:49.347Z,14.98
2022-09-15T07:01:22.407Z,15.02
2022-09-15T07:03:49.113Z,15.05
2022-09-15T07:06:15.672Z,15.13
2022-09-15T07:08:42.958Z,15.18
2022-09-15T07:11:10.387Z,15.24
2022-09-15T07:13:38.098Z,15.30
2022-09-15T07:16:07.487Z,15.35
2022-09-15T07:18:37.651Z,15.40
2022-09-15T07:21:11.311Z,15.44
2022-09-15T07:23:37.991Z,15.49
2022-09-15T07:26:09.162Z,15.48
2022-09-15T07:28:36.296Z,15.47
2022-09-15T07:31:04.604Z,15.55
2022-09-15T07:33:31.595Z,15.59
2022-09-15T07:35:58.257Z,15.61
2022-09-15T07:38:25.240Z,15.63
2022-09-15T07:40:52.139Z,15.63
2022-09-15T07:43:19.125Z,15.66
2022-09-15T07:45:45.773Z,15.70
2022-09-15T07:48:12.388Z,15.67
2022-09-15T07:50:38.965Z,15.66
2022-09-15T07:53:05.487Z,15.66
2022-09-15T07:55:32.803Z,15.66
2022-09-15T07:58:03.236Z,15.67
2022-09-15T08:00:30.187Z,15.67
2022-09-15T08:02:57.105Z,15.72
2022-09-15T08:05:28.334Z,15.74
2022-09-15T08:07:55.898Z,15.79
2022-09-15T08:10:25.158Z,15.82
2022-09-15T08:12:52.802Z,15.87
2022-09-15T08:15:19.421Z,15.92
2022-09-15T08:17:46.636Z,15.88
2022-09-15T08:20:14.303Z,15.91
2022-09-15T08:22:42.042Z,15.96
2022-09-15T08:25:08.974Z,15.98
2022-09-15T08:27:35.545Z,16.01
2022-09-15T08:30:02.079Z,16.02
2022-09-15T08:32:28.678Z,16.06
2022-09-15T08:34:55.320Z,16.08
2022-09-15T08:37:22.081Z,16.13
2022-09-15T08:39:48.872Z,16.17
2022-09-15T08:42:20.623Z,16.21
2022-09-15T08:45:02.565Z,16.22
2022-09-15T08:47:29.119Z,16.29
2022-09-15T08:50:16.901Z,16.31
2022-09-15T08:52:53.940Z,16.36
2022-09-15T08:55:43.718Z,16.38
2022-09-15T08:58:16.835Z,16.39
2022-09-15T09:00:48.623Z,16.45
2022-09-15T09:03:27.018Z,16.51
2022-09-15T09:06:08.719Z,16.55
2022-09-15T09:08:56.150Z,16.59
2022-09-15T09:11:31.749Z,16.63
2022-09-15T09:14:07.201Z,16.64
2022-09-15T09:16:58.431Z,16.66
2022-09-15T09:19:37.135Z,16.74
2022-09-15T09:22:14.673Z,16.78
2022-09-15T09:24:45.714Z,16.87
2022-09-15T09:27:20.046Z,16.95
2022-09-15T09:29:49.951Z,16.98
2022-09-15T09:32:21.625Z,17.04
2022-09-15T09:35:00.922Z,17.11
2022-09-15T09:37:28.250Z,17.18
2022-09-15T09:39:54.826Z,17.23
2022-09-15T09:42:28.710Z,17.28
2022-09-15T09:44:55.424Z,17.31
2022-09-15T09:47:27.841Z,17.37
2022-09-15T09:49:54.432Z,17.36
2022-09-15T09:52:38.156Z,17.37
2022-09-15T09:55:27.149Z,17.37
2022-09-15T09:57:54.630Z,17.41
2022-09-15T10:00:34.524Z,17.42
2022-09-15T10:03:18.212Z,17.44
2022-09-15T10:06:00.192Z,17.45
2022-09-15T10:08:27.102Z,17.43
2022-09-15T10:10:56.753Z,17.45
2022-09-15T10:13:23.459Z,17.42
2022-09-15T10:16:02.304Z,17.44
2022-09-15T10:18:33.459Z,17.41
2022-09-15T10:21:03.266Z,17.42
2022-09-15T10:23:32.036Z,17.44
2022-09-15T10:26:22.107Z,17.43
2022-09-15T10:29:10.463Z,17.46
2022-09-15T10:31:37.087Z,17.45
2022-09-15T10:34:33.013Z,17.54
2022-09-15T10:37:14.205Z,17.53
2022-09-15T10:39:51.664Z,17.54
2022-09-15T10:42:47.182Z,17.57
2022-09-15T10:45:30.553Z,17.61
2022-09-15T10:48:14.206Z,17.60
2022-09-15T10:50:49.151Z,17.59
2022-09-15T10:53:42.024Z,17.63
2022-09-15T10:56:20.551Z,17.66
2022-09-15T10:59:13.816Z,17.68
2022-09-15T11:02:03.370Z,17.70
2022-09-15T11:04:47.330Z,17.76
2022-09-15T11:07:51.266Z,17.77
2022-09-15T11:10:42.201Z,17.77
2022-09-15T11:13:14.593Z,17.74
2022-09-15T11:16:00.152Z,17.77
2022-09-15T11:19:01.731Z,17.82
2022-09-15T11:21:28.246Z,17.83
2022-09-15T11:24:30.451Z,17.83
2022-09-15T11:27:01.112Z,17.84
2022-09-15T11:29:31.373Z,17.85
2022-09-15T11:32:09.840Z,17.84
2022-09-15T11:34:45.072Z,17.92
2022-09-15T11:37:25.125Z,17.92
2022-09-15T11:40:12.980Z,17.88
2022-09-15T11:42:46.547Z,17.82
2022-09-15T11:45:20.205Z,17.83
2022-09-15T11:47:52.682Z,17.82
2022-09-15T11:50:28.175Z,17.80
2022-09-15T11:53:04.526Z,17.79
2022-09-15T11:55:50.743Z,17.74
2022-09-15T11:58:35.390Z,17.73
2022-09-15T12:01:11.056Z,17.69
2022-09-15T12:03:40.673Z,17.63
2022-09-15T12:06:27.524Z,17.57
2022-09-15T12:09:02.022Z,17.46
2022-09-15T12:11:36.979Z,17.48
2022-09-15T12:14:05.195Z,17.47
2022-09-15T12:16:34.267Z,17.44
2022-09-15T12:19:14.566Z,17.46
2022-09-15T12:21:50.115Z,17.47
2022-09-15T12:24:19.578Z,17.48
2022-09-15T12:26:46.715Z,17.49
2022-09-15T12:29:22.329Z,17.47
2022-09-15T12:31:48.945Z,17.47
2022-09-15T12:34:36.961Z,17.45
2022-09-15T12:37:18.011Z,17.46
2022-09-15T12:39:46.139Z,17.46
2022-09-15T12:42:24.738Z,17.40
2022-09-15T12:45:00.890Z,17.39
2022-09-15T12:47:28.528Z,17.37
2022-09-15T12:49:59.706Z,17.32
2022-09-15T12:52:26.786Z,17.35
2022-09-15T12:54:58.773Z,17.36
2022-09-15T12:57:36.813Z,17.35
2022-09-15T13:00:33.781Z,17.28
2022-09-15T13:03:01.909Z,17.24
2022-09-15T13:05:46.068Z,17.27
2022-09-15T13:08:15.389Z,17.26
2022-09-15T13:10:59.842Z,17.26
2022-09-15T13:13:43.840Z,17.25
2022-09-15T13:16:30.913Z,17.27
2022-09-15T13:19:28.492Z,17.27
2022-09-15T13:22:27.172Z,17.27
2022-09-15T13:25:04.814Z,17.28
2022-09-15T13:27:40.988Z,17.28
2022-09-15T13:30:29.522Z,17.29
2022-09-15T13:33:20.121Z,17.27
2022-09-15T13:36:25.564Z,17.34
2022-09-15T13:39:24.180Z,17.37
2022-09-15T13:42:18.129Z,17.39
2022-09-15T13:45:03.536Z,17.42
2022-09-15T13:48:00.065Z,17.41
2022-09-15T13:50:36.669Z,17.40
2022-09-15T13:53:32.928Z,17.41
2022-09-15T13:56:06.097Z,17.34
2022-09-15T14:01:22.258Z,17.38
2022-09-15T14:03:53.654Z,17.39
2022-09-15T14:06:33.725Z,17.38
2022-09-15T14:09:12.834Z,17.38
2022-09-15T14:11:41.437Z,17.39
2022-09-15T14:14:27.823Z,17.38
2022-09-15T14:16:56.268Z,17.38
2022-09-15T14:19:39.136Z,17.37
2022-09-15T14:22:17.825Z,17.36
2022-09-15T14:24:44.497Z,17.35
2022-09-15T14:27:13.028Z,17.33
2022-09-15T14:29:43.856Z,17.34
2022-09-15T14:32:15.756Z,17.33
2022-09-15T14:34:44.263Z,17.30
2022-09-15T14:37:28.472Z,17.31
2022-09-15T14:39:58.059Z,17.28
2022-09-15T14:42:36.105Z,17.28
2022-09-15T14:48:07.270Z,17.24
2022-09-15T14:50:34.191Z,17.21
2022-09-15T14:53:21.345Z,17.22
2022-09-15T14:56:11.715Z,17.14
2022-09-15T14:58:52.628Z,17.14
2022-09-15T15:01:31.549Z,17.14
2022-09-15T15:04:11.348Z,17.12
2022-09-15T15:06:45.221Z,17.11
2022-09-15T15:09:26.763Z,17.09
2022-09-15T15:11:58.917Z,17.05
2022-09-15T15:14:26.071Z,17.05
2022-09-15T15:17:02.248Z,17.04
2022-09-15T15:19:34.973Z,17.04
2022-09-15T15:22:28.231Z,17.02
2022-09-15T15:24:55.413Z,17.00
2022-09-15T15:27:33.733Z,16.99
2022-09-15T15:30:30.389Z,16.97
2022-09-15T15:32:58.308Z,16.97
2022-09-15T15:35:25.891Z,16.93
2022-09-15T15:38:16.929Z,16.87
2022-09-15T15:40:44.824Z,16.89
2022-09-15T15:43:21.652Z,16.89
2022-09-15T15:45:50.995Z,16.88
2022-09-15T15:48:17.566Z,16.89
2022-09-15T15:50:44.146Z,16.89
2022-09-15T15:53:10.739Z,16.89
2022-09-15T15:55:40.553Z,16.88
2022-09-15T15:58:07.587Z,16.85
2022-09-15T16:00:46.060Z,16.87
2022-09-15T16:03:14.203Z,16.86
2022-09-15T16:05:46.747Z,16.85
2022-09-15T16:08:33.075Z,16.85
2022-09-15T16:11:02.214Z,16.85
2022-09-15T16:13:29.694Z,16.82
2022-09-15T16:16:00.446Z,16.80
2022-09-15T16:18:28.701Z,16.79
2022-09-15T16:20:55.269Z,16.77
2022-09-15T16:23:23.498Z,16.77
2022-09-15T16:26:02.541Z,16.76
2022-09-15T16:28:29.519Z,16.75
2022-09-15T16:30:57.134Z,16.75
2022-09-15T16:33:24.915Z,16.75
2022-09-15T16:36:06.874Z,16.74
2022-09-15T16:38:34.832Z,16.74
2022-09-15T16:41:02.205Z,16.73
2022-09-15T16:43:28.918Z,16.72
2022-09-15T16:45:55.498Z,16.69
2022-09-15T16:48:22.116Z,16.68
2022-09-15T16:51:09.528Z,16.71
2022-09-15T16:53:41.123Z,16.69
2022-09-15T16:56:11.240Z,16.68
2022-09-15T16:58:38.401Z,16.66
2022-09-15T17:01:06.050Z,16.66
2022-09-15T17:03:32.737Z,16.65
2022-09-15T17:06:01.861Z,16.64
2022-09-15T17:08:31.256Z,16.60
2022-09-15T17:11:04.198Z,16.63
2022-09-15T17:13:33.121Z,16.61
2022-09-15T17:16:00.937Z,16.62
2022-09-15T17:18:28.629Z,16.61
2022-09-15T17:20:55.153Z,16.56
2022-09-15T17:23:23.417Z,16.61
2022-09-15T17:25:53.022Z,16.61
2022-09-15T17:28:22.503Z,16.62
2022-09-15T17:30:51.427Z,16.61
2022-09-15T17:33:19.799Z,16.59
2022-09-15T17:35:47.195Z,16.61
2022-09-15T17:38:13.859Z,16.59
2022-09-15T17:40:40.531Z,16.59
2022-09-15T17:43:15.173Z,16.60
2022-09-15T17:45:42.233Z,16.58
2022-09-15T17:48:09.362Z,16.56
2022-09-15T17:50:38.122Z,16.62
2022-09-15T17:53:22.852Z,16.60
2022-09-15T17:55:54.424Z,16.60
2022-09-15T17:58:22.236Z,16.62
2022-09-15T18:00:49.791Z,16.63
2022-09-15T18:03:28.868Z,16.65
2022-09-15T18:05:56.829Z,16.65
2022-09-15T18:08:23.402Z,16.68
2022-09-15T18:10:50.758Z,16.69
2022-09-15T18:13:23.594Z,16.70
2022-09-15T18:15:51.099Z,16.71
2022-09-15T18:18:22.580Z,16.73
2022-09-15T18:20:51.967Z,16.75
2022-09-15T18:23:21.328Z,16.75
2022-09-15T18:25:48.570Z,16.74
2022-09-15T18:28:16.523Z,16.76
2022-09-15T18:30:46.092Z,16.78
2022-09-15T18:33:16.992Z,16.78
2022-09-15T18:35:44.232Z,16.78
2022-09-15T18:38:11.551Z,16.80
2022-09-15T18:40:38.683Z,16.77
2022-09-15T18:43:05.631Z,16.79
2022-09-15T18:45:32.199Z,16.80
2022-09-15T18:47:58.811Z,16.80
2022-09-15T18:50:25.637Z,16.77
2022-09-15T18:52:53.028Z,16.81
2022-09-15T18:55:22.101Z,16.82
2022-09-15T18:57:49.561Z,16.84
2022-09-15T19:00:28.110Z,16.85
2022-09-15T19:03:02.973Z,16.83
2022-09-15T19:05:30.349Z,16.83
2022-09-15T19:07:57.330Z,16.90
2022-09-15T19:10:26.572Z,16.92
2022-09-15T19:12:54.011Z,16.90
2022-09-15T19:15:23.747Z,16.82
2022-09-15T19:17:50.816Z,16.83
2022-09-15T19:20:17.638Z,16.79
2022-09-15T19:22:44.307Z,16.78
2022-09-15T19:25:11.666Z,16.76
2022-09-15T19:27:39.737Z,16.72
2022-09-15T19:30:10.051Z,16.71
2022-09-15T19:32:38.248Z,16.68
2022-09-15T19:35:05.457Z,16.62
2022-09-15T19:37:35.285Z,16.60
2022-09-15T19:40:03.406Z,16.55
2022-09-15T19:42:30.186Z,16.49
2022-09-15T19:44:56.757Z,16.49
2022-09-15T19:47:23.459Z,16.46
2022-09-15T19:49:51.937Z,16.43
2022-09-15T19:52:18.566Z,16.42
2022-09-15T19:54:45.118Z,16.40
2022-09-15T19:57:11.694Z,16.38
2022-09-15T19:59:38.501Z,16.38
2022-09-15T20:02:05.126Z,16.38
2022-09-15T20:04:31.846Z,16.39
2022-09-15T20:06:58.435Z,16.38
2022-09-15T20:09:25.001Z,16.40
2022-09-15T20:11:51.567Z,16.38
2022-09-15T20:14:18.140Z,16.37
2022-09-15T20:16:44.766Z,16.35
2022-09-15T20:19:11.469Z,16.25
2022-09-15T20:21:55.573Z,16.26
2022-09-15T20:24:23.657Z,16.22
2022-09-15T20:26:50.889Z,16.21
2022-09-15T20:29:17.701Z,16.18
2022-09-15T20:31:44.395Z,16.12
2022-09-15T20:34:11.086Z,16.13
2022-09-15T20:36:38.993Z,16.11
2022-09-15T20:39:10.391Z,16.10
2022-09-15T20:41:37.121Z,16.12
2022-09-15T20:44:05.207Z,16.09
2022-09-15T20:46:31.826Z,16.08
2022-09-15T20:48:58.427Z,16.06
2022-09-15T20:51:27.919Z,15.98
2022-09-15T20:53:56.162Z,16.00
2022-09-15T20:56:25.604Z,15.97
2022-09-15T20:58:54.098Z,15.95
2022-09-15T21:01:26.029Z,15.88
2022-09-15T21:03:53.476Z,15.89
2022-09-15T21:06:22.295Z,15.86
2022-09-15T21:08:49.700Z,15.81
2022-09-15T21:11:19.346Z,15.77
2022-09-15T21:13:47.180Z,15.77
2022-09-15T21:16:21.691Z,15.67
2022-09-15T21:18:49.663Z,15.68
2022-09-15T21:21:28.301Z,15.69
2022-09-15T21:23:57.027Z,15.70
2022-09-15T21:26:25.799Z,15.64
2022-09-15T21:28:54.195Z,15.65
2022-09-15T21:31:26.573Z,15.68
2022-09-15T21:33:54.403Z,15.62
2022-09-15T21:36:31.388Z,15.66
2022-09-15T21:38:59.454Z,15.64
2022-09-15T21:41:29.704Z,15.65
2022-09-15T21:43:58.030Z,15.63
2022-09-15T21:46:27.835Z,15.61
2022-09-15T21:48:55.766Z,15.61
2022-09-15T21:51:25.044Z,15.57
2022-09-15T21:53:56.142Z,15.55
2022-09-15T21:56:24.454Z,15.58
2022-09-15T21:58:51.025Z,15.57
2022-09-15T22:01:20.168Z,15.57
2022-09-15T22:03:52.435Z,15.55
2022-09-15T22:06:21.422Z,15.51
2022-09-15T22:08:48.283Z,15.53
2022-09-15T22:11:14.846Z,15.52
2022-09-15T22:13:43.649Z,15.41
2022-09-15T22:16:16.493Z,15.35
2022-09-15T22:18:43.587Z,15.29
2022-09-15T22:21:13.764Z,15.19
2022-09-15T22:23:40.957Z,15.11
2022-09-15T22:26:16.866Z,15.09
2022-09-15T22:28:43.805Z,15.03
2022-09-15T22:31:12.888Z,14.90
2022-09-15T22:33:41.247Z,14.92
2022-09-15T22:36:16.477Z,14.86
2022-09-15T22:38:43.493Z,14.87
2022-09-15T22:41:12.740Z,14.85
2022-09-15T22:43:41.419Z,14.85
2022-09-15T22:46:09.044Z,14.85
2022-09-15T22:48:39.764Z,14.82
2022-09-15T22:51:10.100Z,14.83
2022-09-15T22:53:36.616Z,14.80
2022-09-15T22:56:06.700Z,14.82
2022-09-15T22:58:35.186Z,14.80
2022-09-15T23:01:10.780Z,14.79
2022-09-15T23:03:38.057Z,14.78
2022-09-15T23:06:05.427Z,14.75
2022-09-15T23:08:33.074Z,14.68
2022-09-15T23:11:08.314Z,14.61
2022-09-15T23:13:35.725Z,14.66
2022-09-15T23:16:02.991Z,14.65
2022-09-15T23:18:30.080Z,14.65
2022-09-15T23:21:01.621Z,14.63
2022-09-15T23:23:28.409Z,14.65
2022-09-15T23:25:55.797Z,14.63
2022-09-15T23:28:23.361Z,14.66
2022-09-15T23:30:54.417Z,14.69
2022-09-15T23:33:21.801Z,14.65
2022-09-15T23:35:48.775Z,14.63
2022-09-15T23:38:15.811Z,14.60
2022-09-15T23:40:43.370Z,14.58
2022-09-15T23:43:11.241Z,14.57
2022-09-15T23:45:37.814Z,14.59
2022-09-15T23:48:06.054Z,14.55
2022-09-15T23:50:32.989Z,14.52
2022-09-15T23:52:59.614Z,14.52
2022-09-15T23:55:26.206Z,14.50
2022-09-15T23:57:53.175Z,14.50
